createdAt,value
2022-08-17T00:00:49.084Z,6.10
2022-08-17T00:02:26.283Z,6.28
2022-08-17T00:03:59.369Z,6.38
2022-08-17T00:05:36.346Z,6.65
2022-08-17T00:07:08.678Z,6.05
2022-08-17T00:08:44.867Z,6.70
2022-08-17T00:10:17.084Z,6.10
2022-08-17T00:12:03.909Z,8.25
2022-08-17T00:13:49.254Z,7.25
2022-08-17T00:15:22.350Z,7.07
2022-08-17T00:16:57.001Z,6.60
2022-08-17T00:19:05.818Z,6.28
2022-08-17T00:20:23.411Z,6.18
2022-08-17T00:22:31.004Z,5.85
2022-08-17T00:23:59.819Z,6.25
2022-08-17T00:25:34.754Z,6.30
2022-08-17T00:27:06.834Z,5.80
2022-08-17T00:28:39.491Z,6.07
2022-08-17T00:30:13.224Z,6.45
2022-08-17T00:31:45.281Z,6.85
2022-08-17T00:33:23.987Z,6.47
2022-08-17T00:34:56.090Z,6.03
2022-08-17T00:36:28.256Z,6.00
2022-08-17T00:38:00.549Z,6.15
2022-08-17T00:39:32.933Z,6.05
2022-08-17T00:41:08.832Z,6.40
2022-08-17T00:42:41.753Z,6.47
2022-08-17T00:44:13.958Z,6.20
2022-08-17T00:45:46.454Z,6.82
2022-08-17T00:47:18.594Z,6.82
2022-08-17T00:48:51.520Z,6.70
2022-08-17T00:50:23.530Z,6.68
2022-08-17T00:52:10.845Z,6.38
2022-08-17T00:53:50.491Z,6.70
2022-08-17T00:55:24.681Z,7.07
2022-08-17T00:57:07.814Z,6.43
2022-08-17T00:58:40.462Z,6.30
2022-08-17T01:00:21.585Z,6.47
2022-08-17T01:01:53.771Z,6.13
2022-08-17T01:03:27.052Z,5.88
2022-08-17T01:06:32.291Z,6.18
2022-08-17T01:08:06.350Z,6.60
2022-08-17T01:09:38.911Z,6.20
2022-08-17T01:11:10.983Z,6.43
2022-08-17T01:12:43.119Z,5.88
2022-08-17T01:14:16.379Z,5.95
2022-08-17T01:16:03.967Z,6.07
2022-08-17T01:17:36.359Z,5.82
2022-08-17T01:19:17.949Z,6.70
2022-08-17T01:20:52.946Z,6.57
2022-08-17T01:22:25.586Z,5.72
2022-08-17T01:23:57.770Z,5.55
2022-08-17T01:25:30.175Z,6.63
2022-08-17T01:27:02.546Z,6.70
2022-08-17T01:28:54.437Z,5.82
2022-08-17T01:30:56.538Z,5.05
2022-08-17T01:32:20.203Z,5.55
2022-08-17T01:33:52.435Z,5.95
2022-08-17T01:35:24.644Z,5.50
2022-08-17T01:36:57.077Z,5.50
2022-08-17T01:38:32.097Z,6.30
2022-08-17T01:40:10.179Z,5.70
2022-08-17T01:41:42.500Z,6.72
2022-08-17T01:43:20.340Z,5.75
2022-08-17T01:44:57.015Z,5.65
2022-08-17T01:46:32.366Z,5.72
2022-08-17T01:48:05.329Z,5.50
2022-08-17T01:49:37.377Z,6.40
2022-08-17T01:51:09.717Z,6.75
2022-08-17T01:52:43.953Z,5.93
2022-08-17T01:54:18.345Z,6.05
2022-08-17T01:55:56.711Z,5.43
2022-08-17T01:57:28.770Z,5.15
2022-08-17T01:59:00.848Z,6.25
2022-08-17T02:00:47.102Z,6.22
2022-08-17T02:02:31.175Z,5.82
2022-08-17T02:04:04.599Z,5.68
2022-08-17T02:05:37.213Z,5.32
2022-08-17T02:07:09.348Z,5.75
2022-08-17T02:09:01.615Z,6.18
2022-08-17T02:10:35.151Z,6.15
2022-08-17T02:12:39.265Z,5.93
2022-08-17T02:14:02.702Z,5.80
2022-08-17T02:15:35.691Z,5.88
2022-08-17T02:17:07.738Z,5.97
2022-08-17T02:18:39.746Z,6.30
2022-08-17T02:20:11.862Z,6.38
2022-08-17T02:21:46.899Z,6.15
2022-08-17T02:23:19.287Z,5.93
2022-08-17T02:26:29.448Z,5.78
2022-08-17T02:28:01.565Z,6.05
2022-08-17T02:29:33.643Z,6.25
2022-08-17T02:31:09.327Z,6.15
2022-08-17T02:32:41.486Z,5.97
2022-08-17T02:34:13.519Z,5.88
2022-08-17T02:35:45.552Z,5.68
2022-08-17T02:37:18.548Z,6.10
2022-08-17T02:38:50.831Z,6.40
2022-08-17T02:40:36.197Z,5.80
2022-08-17T02:42:09.049Z,5.07
2022-08-17T02:43:41.291Z,6.15
2022-08-17T02:45:18.799Z,6.00
2022-08-17T02:46:50.897Z,5.35
2022-08-17T02:48:31.260Z,5.90
2022-08-17T02:50:05.953Z,5.95
2022-08-17T02:51:37.920Z,5.55
2022-08-17T02:53:09.933Z,5.82
2022-08-17T02:54:42.501Z,5.95
2022-08-17T02:56:14.602Z,6.35
2022-08-17T02:57:47.462Z,5.78
2022-08-17T02:59:19.556Z,5.40
2022-08-17T03:00:54.608Z,5.78
2022-08-17T03:02:26.881Z,6.25
2022-08-17T03:03:59.253Z,5.70
2022-08-17T03:05:33.470Z,5.53
2022-08-17T03:07:06.035Z,5.85
2022-08-17T03:08:38.584Z,5.97
2022-08-17T03:10:11.840Z,8.32
2022-08-17T03:11:43.949Z,5.90
2022-08-17T03:13:16.410Z,6.18
2022-08-17T03:14:48.473Z,6.23
2022-08-17T03:16:20.567Z,5.90
2022-08-17T03:17:54.034Z,6.05
2022-08-17T03:19:26.132Z,6.38
2022-08-17T03:21:01.055Z,5.80
2022-08-17T03:22:40.812Z,5.97
2022-08-17T03:24:13.389Z,5.72
2022-08-17T03:25:50.085Z,5.43
2022-08-17T03:27:25.331Z,5.95
2022-08-17T03:28:57.433Z,5.38
2022-08-17T03:30:29.746Z,5.47
2022-08-17T03:32:11.273Z,5.38
2022-08-17T03:33:43.337Z,5.40
2022-08-17T03:35:18.042Z,5.55
2022-08-17T03:36:51.058Z,5.40
2022-08-17T03:38:23.285Z,5.50
2022-08-17T03:39:55.822Z,5.90
2022-08-17T03:41:27.908Z,5.25
2022-08-17T03:43:06.153Z,5.70
2022-08-17T03:44:38.258Z,5.90
2022-08-17T03:46:35.138Z,5.53
2022-08-17T03:48:26.022Z,6.30
2022-08-17T03:50:16.773Z,6.18
2022-08-17T03:52:07.523Z,6.32
2022-08-17T03:54:13.136Z,5.80
2022-08-17T03:56:04.050Z,5.32
2022-08-17T03:57:37.171Z,7.10
2022-08-17T03:59:20.991Z,5.95
2022-08-17T04:00:55.665Z,5.97
2022-08-17T04:02:30.733Z,5.97
2022-08-17T04:04:02.827Z,5.65
2022-08-17T04:05:35.002Z,6.05
2022-08-17T04:07:07.719Z,5.40
2022-08-17T04:08:39.811Z,6.82
2022-08-17T04:10:11.915Z,5.90
2022-08-17T04:11:44.205Z,6.25
2022-08-17T04:13:16.373Z,6.53
2022-08-17T04:14:57.696Z,5.93
2022-08-17T04:16:30.157Z,7.55
2022-08-17T04:18:02.222Z,7.33
2022-08-17T04:19:34.265Z,8.00
2022-08-17T04:21:09.087Z,7.63
2022-08-17T04:22:55.549Z,7.30
2022-08-17T04:24:28.064Z,7.78
2022-08-17T04:26:00.491Z,7.85
2022-08-17T04:27:32.679Z,6.73
2022-08-17T04:29:04.778Z,7.95
2022-08-17T04:30:39.225Z,6.45
2022-08-17T04:32:11.365Z,7.30
2022-08-17T04:33:44.473Z,7.10
2022-08-17T04:35:21.329Z,6.60
2022-08-17T04:36:53.461Z,6.25
2022-08-17T04:38:28.513Z,6.32
2022-08-17T04:40:19.454Z,6.75
2022-08-17T04:42:17.458Z,6.45
2022-08-17T04:43:50.584Z,6.07
2022-08-17T04:45:22.580Z,6.22
2022-08-17T04:46:54.619Z,6.47
2022-08-17T04:48:36.168Z,6.20
2022-08-17T04:50:09.754Z,6.55
2022-08-17T04:51:56.168Z,6.03
2022-08-17T04:53:29.021Z,6.40
2022-08-17T04:55:04.767Z,6.22
2022-08-17T04:56:38.836Z,5.45
2022-08-17T04:59:43.204Z,6.10
2022-08-17T05:01:16.299Z,6.67
2022-08-17T05:02:56.479Z,6.15
2022-08-17T05:04:34.396Z,6.28
2022-08-17T05:06:07.015Z,6.28
2022-08-17T05:07:39.238Z,6.10
2022-08-17T05:09:11.635Z,6.40
2022-08-17T05:10:45.401Z,6.50
2022-08-17T05:12:17.782Z,6.78
2022-08-17T05:13:50.593Z,6.05
2022-08-17T05:15:22.701Z,6.57
2022-08-17T05:16:54.814Z,6.13
2022-08-17T05:18:27.695Z,5.78
2022-08-17T05:19:59.745Z,6.43
2022-08-17T05:21:31.785Z,6.10
2022-08-17T05:23:07.957Z,6.05
2022-08-17T05:24:43.628Z,6.05
2022-08-17T05:26:26.646Z,5.60
2022-08-17T05:27:59.498Z,5.47
2022-08-17T05:29:35.403Z,5.70
2022-08-17T05:31:08.172Z,5.63
2022-08-17T05:32:40.563Z,5.75
2022-08-17T05:34:12.984Z,5.90
2022-08-17T05:35:47.491Z,5.55
2022-08-17T05:37:20.398Z,5.72
2022-08-17T05:38:52.615Z,5.65
2022-08-17T05:40:26.375Z,5.35
2022-08-17T05:42:04.914Z,6.00
2022-08-17T05:43:40.067Z,5.78
2022-08-17T05:45:12.285Z,5.57
2022-08-17T05:46:48.913Z,6.03
2022-08-17T05:48:21.097Z,5.82
2022-08-17T05:50:09.787Z,6.10
2022-08-17T05:51:48.109Z,6.85
2022-08-17T05:53:39.213Z,6.22
2022-08-17T05:55:23.495Z,5.80
2022-08-17T05:57:00.905Z,5.80
2022-08-17T05:58:57.969Z,6.40
2022-08-17T06:00:59.379Z,6.20
2022-08-17T06:02:59.411Z,5.78
2022-08-17T06:04:56.188Z,6.00
2022-08-17T06:06:40.111Z,5.90
2022-08-17T06:08:31.923Z,6.07
2022-08-17T06:10:27.313Z,6.32
2022-08-17T06:12:23.397Z,5.90
2022-08-17T06:14:14.555Z,5.80
2022-08-17T06:16:33.309Z,6.03
2022-08-17T06:18:09.323Z,5.70
2022-08-17T06:19:46.425Z,6.05
2022-08-17T06:21:19.985Z,5.90
2022-08-17T06:23:06.287Z,5.80
2022-08-17T06:24:44.287Z,5.90
2022-08-17T06:26:38.426Z,6.00
2022-08-17T06:28:16.630Z,5.15
2022-08-17T06:29:57.268Z,5.95
2022-08-17T06:31:35.347Z,5.85
2022-08-17T06:33:14.224Z,5.28
2022-08-17T06:34:46.592Z,5.53
2022-08-17T06:36:42.938Z,5.85
2022-08-17T06:38:37.531Z,5.00
2022-08-17T06:40:29.587Z,4.93
2022-08-17T06:43:02.054Z,5.30
2022-08-17T06:44:49.900Z,5.28
2022-08-17T06:46:36.594Z,4.65
2022-08-17T06:48:24.790Z,4.90
2022-08-17T06:50:07.463Z,4.70
2022-08-17T06:51:43.736Z,5.10
2022-08-17T06:53:26.953Z,5.03
2022-08-17T06:55:18.016Z,5.20
2022-08-17T06:57:14.834Z,5.53
2022-08-17T06:58:47.362Z,5.35
2022-08-17T07:00:24.841Z,4.72
2022-08-17T07:01:57.504Z,4.70
2022-08-17T07:03:41.486Z,4.65
2022-08-17T07:05:16.356Z,4.38
2022-08-17T07:06:53.347Z,4.40
2022-08-17T07:08:45.175Z,4.10
2022-08-17T07:10:18.628Z,3.97
2022-08-17T07:11:57.044Z,4.20
2022-08-17T07:13:41.953Z,4.10
2022-08-17T07:15:21.001Z,4.38
2022-08-17T07:16:55.121Z,4.10
2022-08-17T07:18:28.609Z,4.28
2022-08-17T07:20:15.249Z,4.00
2022-08-17T07:21:55.596Z,3.78
2022-08-17T07:23:42.545Z,3.78
2022-08-17T07:25:20.908Z,3.75
2022-08-17T07:27:10.953Z,3.95
2022-08-17T07:28:44.387Z,3.80
2022-08-17T07:30:24.307Z,3.80
2022-08-17T07:31:56.626Z,3.72
2022-08-17T07:33:32.295Z,4.00
2022-08-17T07:35:15.299Z,3.58
2022-08-17T07:36:47.900Z,4.10
2022-08-17T07:38:26.992Z,3.50
2022-08-17T07:40:16.282Z,3.92
2022-08-17T07:41:53.219Z,3.63
2022-08-17T07:43:41.972Z,3.80
2022-08-17T07:45:35.098Z,4.07
2022-08-17T07:47:35.018Z,4.10
2022-08-17T07:49:09.828Z,3.80
2022-08-17T07:50:42.216Z,3.83
2022-08-17T07:52:51.099Z,3.47
2022-08-17T07:54:37.979Z,3.20
2022-08-17T07:56:10.202Z,3.63
2022-08-17T07:57:42.301Z,3.13
2022-08-17T07:59:23.991Z,3.20
2022-08-17T08:01:11.807Z,3.67
2022-08-17T08:02:48.195Z,3.60
2022-08-17T08:06:24.310Z,3.55
2022-08-17T08:08:06.133Z,3.55
2022-08-17T08:09:43.031Z,3.08
2022-08-17T08:11:16.913Z,3.58
2022-08-17T08:12:53.753Z,3.50
2022-08-17T08:14:38.948Z,3.45
2022-08-17T08:16:32.194Z,3.22
2022-08-17T08:18:07.347Z,3.78
2022-08-17T08:19:39.491Z,3.35
2022-08-17T08:21:33.721Z,2.90
2022-08-17T08:23:50.790Z,3.80
2022-08-17T08:25:40.947Z,3.03
2022-08-17T08:27:34.228Z,3.15
2022-08-17T08:29:13.243Z,3.53
2022-08-17T08:30:49.850Z,3.10
2022-08-17T08:32:51.986Z,3.22
2022-08-17T08:35:01.502Z,3.30
2022-08-17T08:37:14.645Z,3.40
2022-08-17T08:39:24.573Z,3.17
2022-08-17T08:41:03.034Z,3.25
2022-08-17T08:42:35.275Z,3.13
2022-08-17T08:45:01.053Z,3.42
2022-08-17T08:46:49.023Z,3.10
2022-08-17T08:49:00.160Z,3.35
2022-08-17T08:50:47.904Z,3.17
2022-08-17T08:52:35.518Z,3.55
2022-08-17T08:54:29.277Z,3.60
2022-08-17T08:57:19.262Z,3.92
2022-08-17T08:58:47.744Z,3.70
2022-08-17T09:00:26.144Z,3.05
2022-08-17T09:02:34.734Z,3.40
2022-08-17T09:04:23.344Z,3.47
2022-08-17T09:06:32.251Z,3.60
2022-08-17T09:08:54.500Z,3.15
2022-08-17T09:10:35.826Z,3.63
2022-08-17T09:12:35.118Z,3.20
2022-08-17T09:14:21.798Z,3.35
2022-08-17T09:16:07.988Z,2.63
2022-08-17T09:17:48.066Z,2.88
2022-08-17T10:29:28.864Z,2.70
2022-08-17T10:31:33.570Z,3.30
2022-08-17T10:33:08.306Z,2.97
2022-08-17T10:34:49.827Z,2.78
2022-08-17T10:36:55.507Z,2.88
2022-08-17T10:38:46.619Z,3.00
2022-08-17T10:40:43.904Z,2.83
2022-08-17T10:42:32.695Z,3.30
2022-08-17T10:44:39.013Z,3.17
2022-08-17T10:46:34.501Z,3.10
2022-08-17T10:49:56.628Z,2.80
2022-08-17T10:51:39.025Z,3.08
2022-08-17T10:53:11.272Z,3.00
2022-08-17T10:54:54.885Z,2.92
2022-08-17T10:56:46.623Z,3.15
2022-08-17T10:58:22.707Z,3.35
2022-08-17T10:59:56.635Z,3.17
2022-08-17T11:01:35.259Z,2.90
2022-08-17T11:03:26.465Z,3.15
2022-08-17T11:05:02.064Z,3.00
2022-08-17T11:06:42.363Z,2.80
2022-08-17T11:08:20.607Z,2.80
2022-08-17T11:10:09.431Z,2.97
2022-08-17T11:11:53.184Z,2.97
2022-08-17T11:13:34.260Z,3.10
2022-08-17T11:15:47.910Z,3.08
2022-08-17T11:17:44.867Z,2.90
2022-08-17T11:19:23.106Z,2.70
2022-08-17T11:21:15.347Z,3.25
2022-08-17T11:23:05.453Z,3.20
2022-08-17T11:24:48.228Z,2.95
2022-08-17T11:26:26.626Z,3.00
2022-08-17T11:28:09.264Z,3.17
2022-08-17T11:30:00.837Z,2.63
2022-08-17T11:31:41.615Z,2.63
2022-08-17T11:33:31.766Z,2.70
2022-08-17T11:35:22.056Z,2.83
2022-08-17T11:37:16.305Z,2.75
2022-08-17T11:39:04.847Z,2.83
2022-08-17T11:41:15.993Z,2.80
2022-08-17T11:43:07.904Z,2.80
2022-08-17T11:45:32.272Z,3.00
2022-08-17T11:47:37.115Z,2.67
2022-08-17T11:49:35.653Z,2.70
2022-08-17T11:51:33.585Z,3.00
2022-08-17T11:53:06.705Z,3.10
2022-08-17T11:54:47.823Z,2.50
2022-08-17T11:56:50.228Z,2.97
2022-08-17T11:58:31.193Z,2.50
2022-08-17T12:00:13.186Z,2.58
2022-08-17T12:01:56.183Z,2.75
2022-08-17T12:03:34.504Z,2.75
2022-08-17T12:05:13.027Z,2.70
2022-08-17T12:06:49.112Z,2.60
2022-08-17T12:08:24.386Z,2.80
2022-08-17T12:09:57.823Z,2.72
2022-08-17T12:12:13.134Z,2.97
2022-08-17T12:13:53.264Z,2.63
2022-08-17T12:15:32.057Z,2.95
2022-08-17T12:17:10.834Z,2.85
2022-08-17T12:18:54.062Z,3.28
2022-08-17T12:20:37.745Z,2.92
2022-08-17T12:22:12.864Z,2.83
2022-08-17T12:24:07.022Z,3.15
2022-08-17T12:25:43.689Z,2.70
2022-08-17T12:28:05.517Z,2.90
2022-08-17T12:29:38.801Z,2.75
2022-08-17T12:31:27.106Z,2.90
2022-08-17T12:32:59.524Z,3.00
2022-08-17T12:34:42.867Z,2.90
2022-08-17T12:36:17.537Z,2.60
2022-08-17T12:37:50.899Z,3.00
2022-08-17T12:39:26.071Z,3.88
2022-08-17T12:40:58.942Z,2.80
2022-08-17T12:42:35.427Z,2.95
2022-08-17T12:44:13.182Z,2.67
2022-08-17T12:45:46.780Z,2.88
2022-08-17T12:47:22.768Z,2.83
2022-08-17T12:49:13.738Z,2.55
2022-08-17T12:50:46.541Z,2.67
2022-08-17T12:52:29.377Z,2.80
2022-08-17T12:54:02.786Z,2.38
2022-08-17T12:55:44.857Z,2.67
2022-08-17T12:57:36.455Z,2.60
2022-08-17T12:59:11.413Z,2.95
2022-08-17T13:00:50.544Z,2.50
2022-08-17T13:02:28.790Z,2.78
2022-08-17T13:04:06.630Z,2.90
2022-08-17T13:05:42.302Z,2.85
2022-08-17T13:07:33.985Z,2.78
2022-08-17T13:09:13.745Z,2.58
2022-08-17T13:10:56.066Z,2.75
2022-08-17T13:12:36.941Z,2.95
2022-08-17T13:14:11.110Z,2.80
2022-08-17T13:15:53.428Z,2.90
2022-08-17T13:17:28.462Z,2.90
2022-08-17T13:19:10.470Z,2.72
2022-08-17T13:20:53.818Z,2.60
2022-08-17T13:24:08.750Z,2.70
2022-08-17T13:25:41.271Z,2.70
2022-08-17T13:27:13.743Z,2.67
2022-08-17T13:28:50.223Z,3.05
2022-08-17T13:30:28.624Z,2.88
2022-08-17T13:32:13.434Z,2.63
2022-08-17T13:33:46.227Z,2.40
2022-08-17T13:35:39.070Z,2.67
2022-08-17T13:37:19.266Z,2.42
2022-08-17T13:39:13.826Z,2.55
2022-08-17T13:40:50.647Z,2.85
2022-08-17T13:42:31.989Z,2.78
2022-08-17T13:44:31.265Z,2.55
2022-08-17T13:46:37.349Z,2.70
2022-08-17T13:48:13.670Z,2.33
2022-08-17T13:49:49.039Z,2.60
2022-08-17T13:51:29.664Z,2.95
2022-08-17T13:53:02.066Z,2.53
2022-08-17T13:54:36.802Z,2.80
2022-08-17T13:56:33.210Z,2.88
2022-08-17T13:58:08.432Z,2.70
2022-08-17T13:59:54.851Z,2.72
2022-08-17T14:01:53.889Z,3.00
2022-08-17T14:03:26.628Z,2.47
2022-08-17T14:05:01.097Z,2.45
2022-08-17T14:06:54.219Z,2.63
2022-08-17T14:08:31.425Z,2.70
2022-08-17T14:10:03.905Z,2.47
2022-08-17T14:11:36.793Z,2.50
2022-08-17T14:14:43.107Z,2.90
2022-08-17T14:16:16.232Z,2.72
2022-08-17T14:17:49.571Z,3.08
2022-08-17T14:19:25.498Z,2.60
2022-08-17T14:20:59.520Z,2.70
2022-08-17T14:22:34.869Z,2.78
2022-08-17T14:24:10.721Z,3.15
2022-08-17T14:25:43.266Z,2.80
2022-08-17T14:27:18.069Z,2.70
2022-08-17T14:28:54.592Z,3.05
2022-08-17T14:30:29.930Z,3.13
2022-08-17T14:32:07.559Z,2.67
2022-08-17T14:33:40.021Z,3.10
2022-08-17T14:35:15.097Z,2.70
2022-08-17T14:36:48.335Z,3.42
2022-08-17T14:38:21.423Z,2.83
2022-08-17T14:40:01.397Z,2.88
2022-08-17T14:41:33.906Z,2.70
2022-08-17T14:43:06.387Z,3.17
2022-08-17T14:44:42.066Z,2.63
2022-08-17T14:46:14.530Z,3.10
2022-08-17T14:47:47.601Z,2.60
2022-08-17T14:49:21.266Z,3.00
2022-08-17T14:50:53.724Z,2.88
2022-08-17T14:52:26.064Z,2.83
2022-08-17T14:53:58.591Z,2.55
2022-08-17T14:55:31.823Z,2.88
2022-08-17T14:57:23.330Z,3.10
2022-08-17T14:58:59.672Z,3.25
2022-08-17T15:00:33.989Z,3.00
2022-08-17T15:02:06.569Z,3.10
2022-08-17T15:03:40.062Z,2.90
2022-08-17T15:05:16.198Z,3.65
2022-08-17T15:06:49.432Z,3.38
2022-08-17T15:08:21.902Z,3.83
2022-08-17T15:09:54.010Z,3.15
2022-08-17T15:11:26.264Z,2.75
2022-08-17T15:12:59.234Z,2.95
2022-08-17T15:14:31.633Z,3.05
2022-08-17T15:16:04.391Z,2.88
2022-08-17T15:17:44.413Z,3.10
2022-08-17T15:19:18.516Z,3.15
2022-08-17T15:20:51.026Z,3.22
2022-08-17T15:22:25.668Z,3.03
2022-08-17T15:24:00.450Z,3.00
2022-08-17T15:25:33.252Z,2.92
2022-08-17T15:28:38.383Z,3.40
2022-08-17T15:30:11.516Z,3.10
2022-08-17T15:31:43.888Z,3.22
2022-08-17T15:33:20.935Z,3.28
2022-08-17T15:34:58.948Z,3.22
2022-08-17T15:36:31.656Z,3.30
2022-08-17T15:38:11.737Z,3.80
2022-08-17T15:39:45.255Z,3.25
2022-08-17T15:42:51.790Z,3.45
2022-08-17T15:44:24.388Z,3.42
2022-08-17T15:46:10.434Z,3.55
2022-08-17T15:47:43.986Z,3.42
2022-08-17T15:49:17.236Z,3.47
2022-08-17T15:50:49.425Z,3.20
2022-08-17T15:52:24.387Z,3.13
2022-08-17T15:54:04.307Z,3.63
2022-08-17T15:55:49.344Z,3.13
2022-08-17T15:57:27.514Z,3.65
2022-08-17T15:58:59.984Z,3.35
2022-08-17T16:00:35.452Z,3.08
2022-08-17T16:03:44.716Z,3.20
2022-08-17T16:04:29.610Z,3.10
2022-08-17T16:06:03.025Z,3.10
2022-08-17T16:07:35.801Z,3.05
2022-08-17T16:09:08.144Z,3.63
2022-08-17T16:10:40.748Z,3.10
2022-08-17T16:12:19.347Z,3.53
2022-08-17T16:13:54.726Z,3.03
2022-08-17T16:15:27.507Z,2.80
2022-08-17T16:16:59.801Z,3.03
2022-08-17T16:18:32.476Z,3.58
2022-08-17T16:20:05.751Z,3.30
2022-08-17T16:21:42.510Z,3.47
2022-08-17T16:23:20.101Z,3.40
2022-08-17T16:24:57.223Z,3.30
2022-08-17T16:26:31.338Z,3.60
2022-08-17T16:28:04.142Z,3.40
2022-08-17T16:29:38.052Z,3.65
2022-08-17T16:31:10.759Z,3.08
2022-08-17T16:32:43.224Z,3.67
2022-08-17T16:34:18.393Z,3.55
2022-08-17T16:35:51.108Z,3.28
2022-08-17T16:37:23.597Z,3.45
2022-08-17T16:38:57.543Z,3.60
2022-08-17T16:40:31.247Z,3.38
2022-08-17T16:42:30.554Z,3.38
2022-08-17T16:44:05.028Z,4.03
2022-08-17T16:45:41.071Z,3.15
2022-08-17T16:47:17.792Z,3.38
2022-08-17T16:48:52.785Z,3.47
2022-08-17T16:50:25.346Z,3.40
2022-08-17T16:52:02.227Z,3.60
2022-08-17T16:53:34.286Z,3.47
2022-08-17T16:55:10.226Z,3.67
2022-08-17T16:56:46.405Z,3.50
2022-08-17T16:59:53.548Z,3.50
2022-08-17T17:01:25.744Z,3.70
2022-08-17T17:03:19.042Z,3.72
2022-08-17T17:05:06.432Z,3.50
2022-08-17T17:07:02.213Z,3.17
2022-08-17T17:08:47.491Z,3.47
2022-08-17T17:10:25.027Z,3.90
2022-08-17T17:12:00.622Z,3.22
2022-08-17T17:13:47.753Z,3.70
2022-08-17T17:15:22.214Z,3.90
2022-08-17T17:17:05.398Z,3.80
2022-08-17T17:18:41.826Z,3.70
2022-08-17T17:20:18.968Z,4.53
2022-08-17T17:21:53.666Z,4.13
2022-08-17T17:23:45.828Z,5.78
2022-08-17T17:25:29.251Z,5.55
2022-08-17T17:29:04.456Z,7.00
2022-08-17T17:31:04.322Z,5.82
2022-08-17T17:32:41.503Z,5.95
2022-08-17T17:34:16.538Z,5.60
2022-08-17T17:35:54.784Z,5.85
2022-08-17T17:37:32.785Z,6.40
2022-08-17T17:39:08.936Z,7.43
2022-08-17T17:40:44.928Z,7.35
2022-08-17T17:42:21.251Z,8.10
2022-08-17T17:44:01.900Z,6.80
2022-08-17T17:45:44.099Z,4.75
2022-08-17T17:47:16.376Z,5.30
2022-08-17T17:48:48.543Z,5.35
2022-08-17T17:50:35.806Z,6.03
2022-08-17T17:52:38.122Z,5.13
2022-08-17T17:54:29.994Z,5.68
2022-08-17T17:56:43.248Z,10.10
2022-08-17T17:58:33.923Z,7.90
2022-08-17T18:00:16.313Z,5.88
2022-08-17T18:02:37.498Z,6.40
2022-08-17T18:04:47.703Z,11.07
2022-08-17T18:06:48.287Z,4.95
2022-08-17T18:08:33.988Z,6.05
2022-08-17T18:10:41.809Z,4.72
2022-08-17T18:12:39.426Z,4.93
2022-08-17T18:14:53.290Z,6.47
2022-08-17T18:16:27.624Z,7.05
2022-08-17T18:18:15.344Z,7.63
2022-08-17T18:19:48.658Z,5.55
2022-08-17T18:21:23.392Z,4.40
2022-08-17T18:22:55.992Z,4.45
2022-08-17T18:24:40.306Z,4.45
2022-08-17T18:26:12.704Z,6.63
2022-08-17T18:27:51.658Z,6.20
2022-08-17T18:29:34.870Z,6.35
2022-08-17T18:31:12.694Z,5.75
2022-08-17T18:32:47.031Z,5.18
2022-08-17T18:34:46.678Z,5.22
2022-08-17T18:36:36.637Z,4.97
2022-08-17T18:38:42.538Z,6.15
2022-08-17T18:40:17.380Z,5.15
2022-08-17T18:41:52.646Z,5.93
2022-08-17T18:43:27.507Z,6.88
2022-08-17T18:45:08.777Z,7.75
2022-08-17T18:46:40.996Z,7.35
2022-08-17T18:48:33.328Z,7.40
2022-08-17T18:50:27.312Z,6.82
2022-08-17T18:52:15.072Z,5.65
2022-08-17T18:54:16.947Z,5.05
2022-08-17T18:55:49.950Z,5.28
2022-08-17T18:57:33.342Z,5.95
2022-08-17T18:59:13.090Z,5.55
2022-08-17T19:00:47.184Z,5.30
2022-08-17T19:02:45.483Z,5.15
2022-08-17T19:04:33.951Z,9.27
2022-08-17T19:06:37.105Z,5.75
2022-08-17T19:08:24.137Z,5.53
2022-08-17T19:10:04.730Z,5.95
2022-08-17T19:11:37.343Z,5.68
2022-08-17T19:13:15.023Z,5.80
2022-08-17T19:14:58.301Z,6.20
2022-08-17T19:16:39.261Z,6.38
2022-08-17T19:18:23.095Z,5.28
2022-08-17T19:20:03.582Z,6.00
2022-08-17T19:21:45.752Z,5.65
2022-08-17T19:23:53.492Z,6.10
2022-08-17T19:25:32.317Z,6.40
2022-08-17T19:27:19.028Z,6.50
2022-08-17T19:28:59.247Z,6.72
2022-08-17T19:30:34.304Z,9.50
2022-08-17T19:32:10.958Z,7.20
2022-08-17T19:33:43.186Z,6.47
2022-08-17T19:35:22.513Z,5.70
2022-08-17T19:37:00.828Z,5.85
2022-08-17T19:38:42.254Z,5.45
2022-08-17T19:40:48.926Z,5.47
2022-08-17T19:42:50.122Z,6.93
2022-08-17T19:44:35.145Z,5.82
2022-08-17T19:46:59.588Z,5.40
2022-08-17T19:48:57.423Z,5.90
2022-08-17T19:50:58.045Z,5.57
2022-08-17T19:52:47.946Z,5.10
2022-08-17T19:54:40.619Z,5.55
2022-08-17T19:56:22.021Z,5.78
2022-08-17T19:58:06.447Z,5.40
2022-08-17T19:59:55.435Z,5.40
2022-08-17T20:01:50.270Z,5.47
2022-08-17T20:03:40.566Z,5.43
2022-08-17T20:05:18.707Z,6.10
2022-08-17T20:06:52.308Z,6.03
2022-08-17T20:08:27.472Z,5.57
2022-08-17T20:10:06.981Z,5.97
2022-08-17T20:11:54.916Z,6.35
2022-08-17T20:13:45.347Z,6.20
2022-08-17T20:15:32.218Z,5.60
2022-08-17T20:17:05.197Z,5.82
2022-08-17T20:18:38.891Z,5.85
2022-08-17T20:20:29.868Z,5.30
2022-08-17T20:22:11.170Z,5.95
2022-08-17T20:23:54.161Z,5.78
2022-08-17T20:25:50.858Z,5.70
2022-08-17T20:27:32.349Z,5.85
2022-08-17T20:29:06.752Z,5.95
2022-08-17T20:30:41.558Z,6.13
2022-08-17T20:32:23.908Z,5.80
2022-08-17T20:33:56.191Z,5.80
2022-08-17T20:35:39.570Z,5.93
2022-08-17T20:37:14.669Z,6.35
2022-08-17T20:38:50.029Z,5.60
2022-08-17T20:40:26.688Z,5.50
2022-08-17T20:42:15.982Z,5.53
2022-08-17T20:43:52.383Z,5.97
2022-08-17T20:45:25.380Z,5.90
2022-08-17T20:47:02.095Z,5.85
2022-08-17T20:48:42.009Z,5.57
2022-08-17T20:50:26.715Z,5.75
2022-08-17T20:52:09.329Z,5.97
2022-08-17T20:53:47.758Z,6.10
2022-08-17T20:55:51.658Z,5.68
2022-08-17T20:57:33.756Z,6.18
2022-08-17T20:59:05.909Z,5.80
2022-08-17T21:00:57.891Z,6.18
2022-08-17T21:02:30.286Z,6.15
2022-08-17T21:04:14.371Z,6.03
2022-08-17T21:06:09.422Z,5.70
2022-08-17T21:07:56.033Z,5.60
2022-08-17T21:09:30.715Z,5.75
2022-08-17T21:11:57.261Z,5.82
2022-08-17T21:13:53.659Z,5.85
2022-08-17T21:15:57.372Z,6.10
2022-08-17T21:17:38.998Z,6.30
2022-08-17T21:19:37.628Z,5.90
2022-08-17T21:22:02.189Z,6.10
2022-08-17T21:24:03.466Z,5.95
2022-08-17T21:26:10.466Z,6.70
2022-08-17T21:28:07.541Z,6.53
2022-08-17T21:30:13.518Z,6.10
2022-08-17T21:31:58.019Z,6.30
2022-08-17T21:33:32.935Z,6.35
2022-08-17T21:35:07.813Z,6.00
2022-08-17T21:36:39.903Z,6.45
2022-08-17T21:38:14.597Z,6.22
2022-08-17T21:39:52.465Z,6.25
2022-08-17T21:41:34.095Z,6.63
2022-08-17T21:43:24.912Z,6.45
2022-08-17T21:45:01.264Z,6.15
2022-08-17T21:46:38.164Z,5.75
2022-08-17T21:48:15.584Z,6.43
2022-08-17T21:49:48.477Z,5.93
2022-08-17T21:51:26.398Z,6.40
2022-08-17T21:52:59.124Z,5.93
2022-08-17T21:54:39.072Z,6.43
2022-08-17T21:56:13.310Z,6.50
2022-08-17T21:57:53.011Z,6.47
2022-08-17T21:59:39.628Z,6.07
2022-08-17T22:01:27.274Z,5.72
2022-08-17T22:03:04.680Z,6.53
2022-08-17T22:04:41.528Z,6.32
2022-08-17T22:06:34.736Z,6.28
2022-08-17T22:08:19.405Z,6.18
2022-08-17T22:09:51.482Z,6.63
2022-08-17T22:11:23.533Z,6.45
2022-08-17T22:13:22.884Z,6.65
2022-08-17T22:15:06.392Z,6.43
2022-08-17T22:16:39.314Z,6.30
2022-08-17T22:18:19.696Z,6.85
2022-08-17T22:19:56.741Z,6.15
2022-08-17T22:21:29.000Z,6.30
2022-08-17T22:23:19.493Z,6.50
2022-08-17T22:25:00.454Z,6.80
2022-08-17T22:27:06.216Z,6.05
2022-08-17T22:28:40.521Z,6.50
2022-08-17T22:30:30.272Z,6.63
2022-08-17T22:32:02.293Z,6.78
2022-08-17T22:33:42.206Z,6.55
2022-08-17T22:35:29.657Z,6.40
2022-08-17T22:37:31.820Z,6.05
2022-08-17T22:39:09.736Z,6.65
2022-08-17T22:40:41.752Z,6.80
2022-08-17T22:42:15.683Z,5.75
2022-08-17T22:43:48.526Z,6.38
2022-08-17T22:45:20.647Z,6.85
2022-08-17T22:47:02.193Z,6.88
2022-08-17T22:48:34.941Z,6.75
2022-08-17T22:50:25.128Z,6.78
2022-08-17T22:52:06.411Z,6.72
2022-08-17T22:53:57.334Z,6.68
2022-08-17T22:55:52.767Z,6.85
2022-08-17T22:57:57.672Z,6.70
2022-08-17T22:59:50.990Z,6.93
2022-08-17T23:01:26.844Z,7.30
2022-08-17T23:03:11.393Z,7.00
2022-08-17T23:04:48.029Z,7.47
2022-08-17T23:06:20.114Z,6.32
2022-08-17T23:07:53.056Z,7.30
2022-08-17T23:09:25.158Z,7.05
2022-08-17T23:10:58.585Z,7.18
2022-08-17T23:12:30.712Z,6.70
2022-08-17T23:14:02.921Z,6.70
2022-08-17T23:15:34.986Z,6.80
2022-08-17T23:17:08.318Z,6.88
2022-08-17T23:20:13.945Z,7.05
2022-08-17T23:21:46.675Z,6.97
2022-08-17T23:23:23.097Z,6.75
2022-08-17T23:24:55.864Z,7.07
2022-08-17T23:26:28.114Z,6.85
2022-08-17T23:28:04.312Z,7.15
2022-08-17T23:29:39.686Z,6.78
2022-08-17T23:31:13.612Z,6.45
2022-08-17T23:32:53.160Z,7.20
2022-08-17T23:34:26.707Z,7.20
2022-08-17T23:36:01.818Z,7.10
2022-08-17T23:37:33.846Z,6.40
2022-08-17T23:39:06.877Z,6.45
2022-08-17T23:40:39.899Z,7.35
2022-08-17T23:42:16.071Z,6.80
2022-08-17T23:43:52.307Z,6.95
2022-08-17T23:45:24.406Z,7.05
2022-08-17T23:46:56.497Z,7.00
2022-08-17T23:48:36.531Z,6.80
2022-08-17T23:50:12.747Z,7.07
2022-08-17T23:51:46.130Z,7.07
2022-08-17T23:53:18.322Z,6.80